createdAt,value
2019-03-11T00:01:24.070Z,101099.51
2019-03-11T00:03:57.313Z,101089.54
2019-03-11T00:06:30.543Z,101098.20
2019-03-11T00:09:04.475Z,101106.04
2019-03-11T00:11:39.328Z,101109.52
2019-03-11T00:14:12.588Z,101108.23
2019-03-11T00:16:45.815Z,101113.45
2019-03-11T00:19:19.096Z,101106.08
2019-03-11T00:21:52.282Z,101110.86
2019-03-11T00:24:25.531Z,101106.95
2019-03-11T00:26:58.756Z,101106.95
2019-03-11T00:29:32.232Z,101112.59
2019-03-11T00:32:05.467Z,101109.13
2019-03-11T00:34:38.711Z,101109.14
2019-03-11T00:37:13.566Z,101116.07
2019-03-11T00:39:46.821Z,101122.16
2019-03-11T00:42:20.047Z,101123.47
2019-03-11T00:44:53.299Z,101118.29
2019-03-11T00:47:26.542Z,101118.73
2019-03-11T00:50:00.013Z,101110.91
2019-03-11T00:52:33.338Z,101118.30
2019-03-11T00:55:08.317Z,101112.27
2019-03-11T00:57:41.558Z,101122.23
2019-03-11T01:00:24.208Z,101121.37
2019-03-11T01:02:57.440Z,101118.79
2019-03-11T01:05:30.691Z,101124.41
2019-03-11T01:08:03.922Z,101113.19
2019-03-11T01:10:37.170Z,101126.61
2019-03-11T01:13:10.402Z,101124.03
2019-03-11T01:15:43.657Z,101127.07
2019-03-11T01:18:16.890Z,101126.63
2019-03-11T01:20:50.143Z,101108.87
2019-03-11T01:23:23.366Z,101121.89
2019-03-11T01:25:56.600Z,101112.79
2019-03-11T01:28:29.824Z,101130.15
2019-03-11T01:31:03.068Z,101134.47
2019-03-11T01:33:36.296Z,101131.47
2019-03-11T01:36:09.532Z,101122.78
2019-03-11T01:38:42.760Z,101134.48
2019-03-11T01:41:16.003Z,101121.50
2019-03-11T01:43:49.230Z,101128.44
2019-03-11T01:46:22.467Z,101123.70
2019-03-11T01:48:55.688Z,101131.52
2019-03-11T01:51:28.929Z,101128.90
2019-03-11T01:54:02.162Z,101135.84
2019-03-11T01:56:35.408Z,101139.31
2019-03-11T01:59:08.649Z,101129.35
2019-03-11T02:01:41.897Z,101129.80
2019-03-11T02:04:15.130Z,101125.03
2019-03-11T02:06:48.399Z,101126.77
2019-03-11T02:09:21.621Z,101120.69
2019-03-11T02:11:54.875Z,101119.39
2019-03-11T02:14:28.086Z,101112.47
2019-03-11T02:17:01.352Z,101111.16
2019-03-11T02:19:34.586Z,101109.88
2019-03-11T02:22:07.848Z,101117.67
2019-03-11T02:24:41.087Z,101114.17
2019-03-11T02:27:14.334Z,101105.95
2019-03-11T02:29:47.564Z,101112.89
2019-03-11T02:32:20.812Z,101108.99
2019-03-11T02:34:54.044Z,101106.84
2019-03-11T02:37:27.294Z,101124.20
2019-03-11T02:40:00.720Z,101108.19
2019-03-11T02:42:33.935Z,101110.34
2019-03-11T02:45:08.514Z,101109.06
2019-03-11T02:47:41.761Z,101102.98
2019-03-11T02:50:14.986Z,101106.03
2019-03-11T02:52:48.244Z,101114.71
2019-03-11T02:55:21.465Z,101106.48
2019-03-11T02:57:54.705Z,101096.09
2019-03-11T03:00:27.935Z,101085.73
2019-03-11T03:03:01.186Z,101085.73
2019-03-11T03:05:34.441Z,101090.50
2019-03-11T03:08:07.677Z,101090.94
2019-03-11T03:10:41.879Z,101091.80
2019-03-11T03:13:15.150Z,101080.98
2019-03-11T03:15:48.371Z,101072.77
2019-03-11T03:18:21.603Z,101085.32
2019-03-11T03:20:54.840Z,101080.56
2019-03-11T03:23:28.087Z,101076.25
2019-03-11T03:26:02.302Z,101061.52
2019-03-11T03:28:35.545Z,101062.83
2019-03-11T03:31:08.765Z,101061.52
2019-03-11T03:33:42.023Z,101061.52
2019-03-11T03:36:15.243Z,101059.78
2019-03-11T03:38:48.486Z,101066.28
2019-03-11T03:41:21.711Z,101074.52
2019-03-11T03:43:54.967Z,101070.63
2019-03-11T03:46:28.184Z,101067.63
2019-03-11T03:49:01.443Z,101078.44
2019-03-11T03:51:34.673Z,101070.23
2019-03-11T03:54:07.918Z,101079.32
2019-03-11T03:56:41.158Z,101072.39
2019-03-11T03:59:14.411Z,101077.56
2019-03-11T04:01:47.638Z,101086.66
2019-03-11T04:04:20.885Z,101075.41
2019-03-11T04:06:54.108Z,101074.55
2019-03-11T04:09:27.348Z,101075.42
2019-03-11T04:12:00.596Z,101089.28
2019-03-11T04:14:34.795Z,101102.70
2019-03-11T04:17:08.032Z,101105.33
2019-03-11T04:19:41.306Z,101109.64
2019-03-11T04:22:14.495Z,101097.08
2019-03-11T04:24:47.744Z,101104.45
2019-03-11T04:27:20.969Z,101102.30
2019-03-11T04:29:54.212Z,101104.48
2019-03-11T04:32:27.440Z,101113.15
2019-03-11T04:35:00.685Z,101104.93
2019-03-11T04:37:33.907Z,101105.78
2019-03-11T04:40:11.632Z,101108.83
2019-03-11T04:42:44.863Z,101116.62
2019-03-11T04:45:18.113Z,101120.95
2019-03-11T04:47:51.342Z,101111.87
2019-03-11T04:50:24.582Z,101121.41
2019-03-11T04:52:57.817Z,101127.48
2019-03-11T04:55:31.064Z,101106.69
2019-03-11T04:58:04.289Z,101118.83
2019-03-11T05:00:37.572Z,101121.84
2019-03-11T05:03:10.772Z,101120.55
2019-03-11T05:05:44.027Z,101122.70
2019-03-11T05:08:17.256Z,101123.16
2019-03-11T05:10:50.503Z,101122.73
2019-03-11T05:13:23.729Z,101117.98
2019-03-11T05:15:56.968Z,101112.80
2019-03-11T05:18:30.209Z,101106.73
2019-03-11T05:21:03.447Z,101105.84
2019-03-11T05:23:36.674Z,101115.81
2019-03-11T05:26:09.911Z,101122.72
2019-03-11T05:28:43.140Z,101135.72
2019-03-11T05:31:16.398Z,101127.93
2019-03-11T05:33:49.614Z,101125.78
2019-03-11T05:36:22.867Z,101142.67
2019-03-11T05:38:56.097Z,101147.44
2019-03-11T05:41:29.345Z,101157.83
2019-03-11T05:44:02.575Z,101154.38
2019-03-11T05:46:35.819Z,101140.52
2019-03-11T05:49:09.046Z,101150.02
2019-03-11T05:51:42.301Z,101146.56
2019-03-11T05:54:15.578Z,101143.09
2019-03-11T05:56:49.790Z,101147.38
2019-03-11T05:59:23.015Z,101139.55
2019-03-11T06:01:56.293Z,101141.70
2019-03-11T06:04:29.501Z,101142.94
2019-03-11T06:07:02.739Z,101142.93
2019-03-11T06:09:35.970Z,101151.16
2019-03-11T06:12:09.233Z,101146.80
2019-03-11T06:14:42.468Z,101145.90
2019-03-11T06:17:15.706Z,101161.94
2019-03-11T06:19:48.932Z,101161.91
2019-03-11T06:22:22.188Z,101149.77
2019-03-11T06:24:55.659Z,101162.77
2019-03-11T06:27:28.909Z,101169.66
2019-03-11T06:30:02.511Z,101174.87
2019-03-11T06:32:35.752Z,101165.31
2019-03-11T06:35:08.979Z,101166.61
2019-03-11T06:37:42.222Z,101179.63
2019-03-11T06:40:15.454Z,101180.91
2019-03-11T06:42:48.705Z,101178.75
2019-03-11T06:45:21.928Z,101175.73
2019-03-11T06:47:55.169Z,101183.09
2019-03-11T06:50:28.398Z,101187.84
2019-03-11T06:53:01.672Z,101181.77
2019-03-11T06:55:34.896Z,101186.92
2019-03-11T06:58:08.138Z,101185.61
2019-03-11T07:00:41.364Z,101196.41
2019-03-11T07:03:14.610Z,101196.43
2019-03-11T07:05:47.838Z,101191.21
2019-03-11T07:08:21.078Z,101209.42
2019-03-11T07:10:54.313Z,101207.27
2019-03-11T07:13:27.558Z,101217.67
2019-03-11T07:16:00.786Z,101226.37
2019-03-11T07:18:34.021Z,101228.53
2019-03-11T07:21:07.253Z,101237.65
2019-03-11T07:23:40.508Z,101237.22
2019-03-11T07:26:13.736Z,101228.55
2019-03-11T07:28:46.977Z,101230.27
2019-03-11T07:31:20.208Z,101239.83
2019-03-11T07:33:53.448Z,101245.02
2019-03-11T07:36:26.672Z,101253.69
2019-03-11T07:38:59.915Z,101248.91
2019-03-11T07:41:33.139Z,101257.57
2019-03-11T07:44:06.396Z,101264.08
2019-03-11T07:46:39.624Z,101271.05
2019-03-11T07:49:12.865Z,101273.66
2019-03-11T07:51:46.092Z,101282.75
2019-03-11T07:54:20.955Z,101278.86
2019-03-11T07:56:54.428Z,101287.53
2019-03-11T07:59:27.673Z,101294.89
2019-03-11T08:02:00.898Z,101304.84
2019-03-11T08:04:34.131Z,101307.88
2019-03-11T08:07:07.371Z,101297.06
2019-03-11T08:09:40.612Z,101311.36
2019-03-11T08:12:13.851Z,101308.73
2019-03-11T08:14:47.100Z,101315.22
2019-03-11T08:17:20.394Z,101308.73
2019-03-11T08:19:53.625Z,101316.95
2019-03-11T08:22:26.848Z,101316.95
2019-03-11T08:25:00.199Z,101321.72
2019-03-11T08:27:33.497Z,101334.27
2019-03-11T08:30:09.842Z,101326.45
2019-03-11T08:32:43.071Z,101326.48
2019-03-11T08:35:16.325Z,101326.42
2019-03-11T08:37:49.566Z,101330.77
2019-03-11T08:40:22.813Z,101332.94
2019-03-11T08:42:56.048Z,101331.13
2019-03-11T08:45:29.298Z,101351.76
2019-03-11T08:48:02.529Z,101356.56
2019-03-11T08:50:35.796Z,101359.99
2019-03-11T08:53:09.030Z,101371.74
2019-03-11T08:55:42.280Z,101379.03
2019-03-11T08:58:15.510Z,101397.25
2019-03-11T09:00:48.762Z,101392.45
2019-03-11T09:03:21.989Z,101385.52
2019-03-11T09:05:55.233Z,101408.53
2019-03-11T09:08:28.460Z,101422.43
2019-03-11T09:11:01.715Z,101412.05
2019-03-11T09:13:34.947Z,101404.67
2019-03-11T09:16:08.189Z,101409.44
2019-03-11T09:18:42.386Z,101441.98
2019-03-11T09:21:15.647Z,101436.35
2019-03-11T09:23:48.871Z,101441.56
2019-03-11T09:26:22.108Z,101423.34
2019-03-11T09:28:55.346Z,101433.75
2019-03-11T09:31:28.592Z,101447.63
2019-03-11T09:34:01.829Z,101441.11
2019-03-11T09:36:36.032Z,101437.19
2019-03-11T09:39:09.631Z,101442.37
2019-03-11T09:41:42.882Z,101436.72
2019-03-11T09:44:16.115Z,101433.68
2019-03-11T09:46:49.355Z,101429.33
2019-03-11T09:49:22.591Z,101446.69
2019-03-11T09:51:55.827Z,101437.95
2019-03-11T09:54:30.019Z,101438.83
2019-03-11T09:57:04.884Z,101437.94
2019-03-11T09:59:38.130Z,101453.11
2019-03-11T10:02:12.424Z,101444.80
2019-03-11T10:04:45.779Z,101458.66
2019-03-11T10:07:19.016Z,101454.24
2019-03-11T10:09:52.253Z,101461.14
2019-03-11T10:12:25.492Z,101462.86
2019-03-11T10:14:58.726Z,101459.31
2019-03-11T10:17:31.983Z,101452.36
2019-03-11T10:20:08.146Z,101470.18
2019-03-11T10:22:41.394Z,101463.61
2019-03-11T10:25:15.551Z,101474.05
2019-03-11T10:27:48.795Z,101481.43
2019-03-11T10:30:23.070Z,101492.77
2019-03-11T10:32:56.309Z,101484.52
2019-03-11T10:35:32.562Z,101495.81
2019-03-11T10:38:04.489Z,101518.43
2019-03-11T10:40:37.722Z,101516.72
2019-03-11T10:43:10.978Z,101521.95
2019-03-11T10:45:44.215Z,101528.42
2019-03-11T10:48:17.457Z,101524.53
2019-03-11T10:50:50.779Z,101525.84
2019-03-11T10:53:24.097Z,101523.25
2019-03-11T10:55:59.855Z,101529.79
2019-03-11T10:58:32.277Z,101531.09
2019-03-11T11:01:05.508Z,101538.91
2019-03-11T11:03:38.755Z,101540.17
2019-03-11T11:06:12.232Z,101554.55
2019-03-11T11:08:45.477Z,101548.46
2019-03-11T11:11:18.702Z,101558.84
2019-03-11T11:13:51.934Z,101564.07
2019-03-11T11:16:25.160Z,101563.61
2019-03-11T11:18:58.404Z,101567.51
2019-03-11T11:21:31.635Z,101585.78
2019-03-11T11:24:04.905Z,101572.72
2019-03-11T11:26:38.143Z,101576.62
2019-03-11T11:29:11.405Z,101571.34
2019-03-11T11:31:44.634Z,101573.05
2019-03-11T11:34:17.868Z,101592.14
2019-03-11T11:36:51.090Z,101596.45
2019-03-11T11:39:24.339Z,101607.27
2019-03-11T11:41:57.562Z,101597.25
2019-03-11T11:44:30.793Z,101622.48
2019-03-11T11:47:04.014Z,101609.37
2019-03-11T11:49:37.251Z,101612.47
2019-03-11T11:52:10.494Z,101624.59
2019-03-11T11:54:43.761Z,101617.63
2019-03-11T11:57:17.023Z,101628.97
2019-03-11T11:59:54.262Z,101617.23
2019-03-11T12:02:25.217Z,101636.83
2019-03-11T12:04:58.452Z,101634.22
2019-03-11T12:07:31.721Z,101626.81
2019-03-11T12:10:08.129Z,101645.05
2019-03-11T12:12:41.360Z,101652.41
2019-03-11T12:15:14.611Z,101642.86
2019-03-11T12:17:47.847Z,101663.71
2019-03-11T12:20:26.263Z,101668.93
2019-03-11T12:22:59.496Z,101665.91
2019-03-11T12:25:32.730Z,101680.30
2019-03-11T12:28:05.967Z,101677.24
2019-03-11T12:30:39.210Z,101679.02
2019-03-11T12:33:12.441Z,101688.61
2019-03-11T12:35:45.675Z,101696.03
2019-03-11T12:38:19.150Z,101710.81
2019-03-11T12:40:52.394Z,101690.41
2019-03-11T12:43:25.630Z,101723.89
2019-03-11T12:45:59.839Z,101721.72
2019-03-11T12:48:33.073Z,101726.92
2019-03-11T12:51:06.318Z,101713.46
2019-03-11T12:53:39.550Z,101714.33
2019-03-11T12:56:12.781Z,101714.31
2019-03-11T12:58:46.006Z,101733.00
2019-03-11T13:01:19.252Z,101722.99
2019-03-11T13:03:52.492Z,101741.25
2019-03-11T13:06:25.749Z,101745.17
2019-03-11T13:08:58.987Z,101742.55
2019-03-11T13:11:32.237Z,101759.08
2019-03-11T13:14:06.441Z,101759.54
2019-03-11T13:16:39.698Z,101763.44
2019-03-11T13:19:13.740Z,101758.66
2019-03-11T13:21:48.753Z,101764.77
2019-03-11T13:24:21.946Z,101758.27
2019-03-11T13:26:55.203Z,101764.33
2019-03-11T13:29:28.439Z,101779.14
2019-03-11T13:32:01.672Z,101780.44
2019-03-11T13:34:34.908Z,101784.78
2019-03-11T13:37:08.154Z,101783.92
2019-03-11T13:39:41.394Z,101791.31
2019-03-11T13:42:14.636Z,101792.17
2019-03-11T13:44:47.871Z,101798.68
2019-03-11T13:47:21.127Z,101793.89
2019-03-11T13:49:54.359Z,101804.34
2019-03-11T13:52:27.607Z,101813.03
2019-03-11T13:55:09.719Z,101809.13
2019-03-11T13:57:35.785Z,101830.42
2019-03-11T14:00:11.865Z,101808.70
2019-03-11T14:02:45.187Z,101813.91
2019-03-11T14:05:18.424Z,101814.75
2019-03-11T14:07:51.681Z,101823.87
2019-03-11T14:10:24.905Z,101823.47
2019-03-11T14:12:58.149Z,101834.74
2019-03-11T14:15:31.387Z,101826.92
2019-03-11T14:18:04.618Z,101825.64
2019-03-11T14:20:37.851Z,101843.44
2019-03-11T14:23:11.107Z,101840.00
2019-03-11T14:25:44.337Z,101842.55
2019-03-11T14:28:17.604Z,101856.92
2019-03-11T14:30:51.089Z,101843.00
2019-03-11T14:33:24.363Z,101866.02
2019-03-11T14:35:57.597Z,101855.61
2019-03-11T14:38:30.842Z,101864.72
2019-03-11T14:41:04.074Z,101872.10
2019-03-11T14:43:37.320Z,101880.39
2019-03-11T14:46:10.558Z,101879.06
2019-03-11T14:48:43.798Z,101879.08
2019-03-11T14:51:17.020Z,101874.30
2019-03-11T14:53:50.281Z,101880.80
2019-03-11T14:56:23.514Z,101888.61
2019-03-11T14:58:56.760Z,101890.37
2019-03-11T15:01:30.409Z,101899.89
2019-03-11T15:04:03.651Z,101902.50
2019-03-11T15:06:36.890Z,101891.23
2019-03-11T15:09:10.123Z,101903.81
2019-03-11T15:11:43.357Z,101903.78
2019-03-11T15:14:16.617Z,101914.65
2019-03-11T15:16:49.850Z,101923.73
2019-03-11T15:19:23.097Z,101912.46
2019-03-11T15:21:56.333Z,101927.19
2019-03-11T15:24:29.586Z,101925.03
2019-03-11T15:27:02.821Z,101910.23
2019-03-11T15:29:36.069Z,101927.57
2019-03-11T15:32:09.304Z,101912.81
2019-03-11T15:34:42.562Z,101926.70
2019-03-11T15:37:15.791Z,101938.41
2019-03-11T15:39:49.051Z,101939.28
2019-03-11T15:42:22.287Z,101938.88
2019-03-11T15:44:55.527Z,101946.23
2019-03-11T15:47:28.756Z,101949.27
2019-03-11T15:50:02.003Z,101959.66
2019-03-11T15:52:35.473Z,101956.22
2019-03-11T15:55:11.357Z,101974.44
2019-03-11T15:57:44.592Z,101965.82
2019-03-11T16:00:19.235Z,101992.73
2019-03-11T16:02:52.417Z,101983.61
2019-03-11T16:05:25.835Z,101995.80
2019-03-11T16:07:59.068Z,102000.13
2019-03-11T16:10:32.333Z,102007.08
2019-03-11T16:13:05.573Z,102005.34
2019-03-11T16:15:38.835Z,102008.38
2019-03-11T16:18:12.069Z,102005.34
2019-03-11T16:20:45.307Z,102013.19
2019-03-11T16:23:18.542Z,102015.36
2019-03-11T16:25:51.788Z,102019.27
2019-03-11T16:28:25.027Z,102034.45
2019-03-11T16:30:58.283Z,102038.83
2019-03-11T16:33:34.021Z,102029.30
2019-03-11T16:36:06.452Z,102039.75
2019-03-11T16:38:39.677Z,102038.47
2019-03-11T16:41:12.937Z,102051.06
2019-03-11T16:43:46.174Z,102044.98
2019-03-11T16:46:19.448Z,102053.23
2019-03-11T16:48:52.677Z,102061.50
2019-03-11T16:51:25.934Z,102074.09
2019-03-11T16:53:59.179Z,102074.56
2019-03-11T16:56:32.425Z,102081.95
2019-03-11T16:59:05.654Z,102089.77
2019-03-11T17:01:38.909Z,102080.64
2019-03-11T17:04:12.148Z,102091.94
2019-03-11T17:06:45.402Z,102081.95
2019-03-11T17:09:18.633Z,102106.27
2019-03-11T17:11:51.882Z,102122.32
2019-03-11T17:14:25.119Z,102125.36
2019-03-11T17:16:58.373Z,102123.62
2019-03-11T17:19:31.622Z,102130.58
2019-03-11T17:22:04.864Z,102131.44
2019-03-11T17:24:38.096Z,102144.48
2019-03-11T17:27:11.341Z,102149.25
2019-03-11T17:29:44.580Z,102149.25
2019-03-11T17:32:17.820Z,102147.95
2019-03-11T17:34:51.052Z,102162.28
2019-03-11T17:37:24.292Z,102162.32
2019-03-11T17:39:57.524Z,102169.70
2019-03-11T17:42:30.764Z,102181.47
2019-03-11T17:45:07.255Z,102182.34
2019-03-11T17:47:40.499Z,102184.08
2019-03-11T17:50:18.387Z,102187.11
2019-03-11T17:52:51.633Z,102203.19
2019-03-11T17:55:24.855Z,102208.04
2019-03-11T17:57:58.097Z,102212.81
2019-03-11T18:00:31.341Z,102216.30
2019-03-11T18:03:04.594Z,102223.25
2019-03-11T18:05:37.829Z,102221.07
2019-03-11T18:08:11.083Z,102220.64
2019-03-11T18:10:44.316Z,102231.94
2019-03-11T18:13:17.558Z,102230.20
2019-03-11T18:15:50.790Z,102231.94
2019-03-11T18:18:32.754Z,102229.33
2019-03-11T18:20:59.927Z,102243.67
2019-03-11T18:23:33.210Z,102243.67
2019-03-11T18:26:06.451Z,102247.58
2019-03-11T18:28:39.719Z,102248.88
2019-03-11T18:31:12.943Z,102248.45
2019-03-11T18:33:46.207Z,102250.19
2019-03-11T18:36:19.409Z,102247.15
2019-03-11T18:38:52.655Z,102248.88
2019-03-11T18:41:25.934Z,102247.58
2019-03-11T18:43:59.143Z,102258.88
2019-03-11T18:46:32.377Z,102260.63
2019-03-11T18:49:05.687Z,102263.70
2019-03-11T18:51:38.945Z,102260.66
2019-03-11T18:54:12.312Z,102268.48
2019-03-11T18:56:45.580Z,102268.91
2019-03-11T18:59:18.848Z,102269.78
2019-03-11T19:01:52.093Z,102272.83
2019-03-11T19:04:25.312Z,102286.77
2019-03-11T19:06:58.551Z,102290.69
2019-03-11T19:09:31.840Z,102294.16
2019-03-11T19:12:05.068Z,102296.77
2019-03-11T19:14:38.298Z,102301.98
2019-03-11T19:17:11.523Z,102305.03
2019-03-11T19:19:46.411Z,102304.16
2019-03-11T19:22:19.867Z,102306.33
2019-03-11T19:24:53.142Z,102311.11
2019-03-11T19:27:26.358Z,102308.94
2019-03-11T19:29:59.599Z,102310.24
2019-03-11T19:32:32.883Z,102306.33
2019-03-11T19:35:06.797Z,102310.72
2019-03-11T19:37:40.049Z,102300.28
2019-03-11T19:40:21.113Z,102306.80
2019-03-11T19:42:54.401Z,102309.41
2019-03-11T19:45:27.632Z,102307.23
2019-03-11T19:48:01.127Z,102312.02
2019-03-11T19:50:34.410Z,102315.93
2019-03-11T19:53:07.654Z,102329.80
2019-03-11T19:55:40.948Z,102326.33
2019-03-11T19:58:14.139Z,102322.41
2019-03-11T20:00:47.675Z,102322.41
2019-03-11T20:03:27.890Z,102326.33
2019-03-11T20:05:55.772Z,102331.54
2019-03-11T20:08:29.006Z,102326.76
2019-03-11T20:11:02.265Z,102331.54
2019-03-11T20:13:36.608Z,102333.71
2019-03-11T20:16:10.002Z,102335.89
2019-03-11T20:18:43.249Z,102335.88
2019-03-11T20:21:16.514Z,102328.89
2019-03-11T20:23:50.009Z,102333.23
2019-03-11T20:26:23.479Z,102334.55
2019-03-11T20:28:56.753Z,102338.89
2019-03-11T20:31:30.043Z,102338.02
2019-03-11T20:34:03.304Z,102334.55
2019-03-11T20:36:36.621Z,102333.67
2019-03-11T20:39:09.801Z,102336.72
2019-03-11T20:41:43.225Z,102336.28
2019-03-11T20:44:17.394Z,102332.81
2019-03-11T20:46:50.730Z,102328.46
2019-03-11T20:49:24.004Z,102323.68
2019-03-11T20:51:59.989Z,102324.55
2019-03-11T20:54:33.217Z,102331.10
2019-03-11T20:57:06.415Z,102334.58
2019-03-11T20:59:39.652Z,102327.19
2019-03-11T21:02:12.912Z,102330.23
2019-03-11T21:04:46.100Z,102329.80
2019-03-11T21:07:19.377Z,102325.02
2019-03-11T21:09:52.639Z,102328.46
2019-03-11T21:12:26.096Z,102333.67
2019-03-11T21:15:00.371Z,102330.20
2019-03-11T21:17:33.560Z,102332.37
2019-03-11T21:20:09.316Z,102334.98
2019-03-11T21:22:42.548Z,102328.45
2019-03-11T21:25:19.079Z,102328.02
2019-03-11T21:27:52.379Z,102330.19
2019-03-11T21:30:25.920Z,102321.90
2019-03-11T21:32:59.158Z,102327.55
2019-03-11T21:35:32.421Z,102324.94
2019-03-11T21:38:05.743Z,102322.33
2019-03-11T21:40:39.012Z,102326.67
2019-03-11T21:43:12.356Z,102328.41
2019-03-11T21:45:45.581Z,102324.94
2019-03-11T21:48:18.766Z,102327.10
2019-03-11T21:50:52.268Z,102325.80
2019-03-11T21:53:25.506Z,102328.77
2019-03-11T21:55:58.762Z,102325.72
2019-03-11T21:58:32.045Z,102330.94
2019-03-11T22:01:05.324Z,102328.33
2019-03-11T22:03:38.499Z,102327.45
2019-03-11T22:06:11.728Z,102332.23
2019-03-11T22:08:44.971Z,102336.11
2019-03-11T22:11:18.205Z,102331.80
2019-03-11T22:13:51.452Z,102331.33
2019-03-11T22:16:24.689Z,102340.02
2019-03-11T22:18:57.932Z,102338.27
2019-03-11T22:21:31.166Z,102339.14
2019-03-11T22:24:04.407Z,102343.05
2019-03-11T22:26:37.641Z,102344.80
2019-03-11T22:29:10.925Z,102344.79
2019-03-11T22:31:44.129Z,102346.53
2019-03-11T22:34:17.378Z,102343.48
2019-03-11T22:36:50.602Z,102342.57
2019-03-11T22:39:23.853Z,102335.62
2019-03-11T22:41:57.069Z,102326.48
2019-03-11T22:44:30.380Z,102324.28
2019-03-11T22:47:03.633Z,102325.58
2019-03-11T22:49:36.857Z,102324.27
2019-03-11T22:52:10.111Z,102332.09
2019-03-11T22:54:43.340Z,102331.21
2019-03-11T22:57:16.594Z,102332.09
2019-03-11T22:59:49.823Z,102336.92
2019-03-11T23:02:23.076Z,102329.95
2019-03-11T23:04:56.314Z,102323.84
2019-03-11T23:07:29.551Z,102319.92
2019-03-11T23:10:03.455Z,102322.92
2019-03-11T23:12:37.966Z,102312.92
2019-03-11T23:15:11.192Z,102308.13
2019-03-11T23:17:44.440Z,102307.21
2019-03-11T23:20:17.666Z,102308.91
2019-03-11T23:22:51.003Z,102307.16
2019-03-11T23:25:24.235Z,102309.71
2019-03-11T23:27:57.477Z,102297.54
2019-03-11T23:30:30.709Z,102289.72
2019-03-11T23:33:03.942Z,102285.77
2019-03-11T23:35:37.175Z,102288.78
2019-03-11T23:38:10.419Z,102300.46
2019-03-11T23:40:44.630Z,102300.01
2019-03-11T23:43:17.871Z,102293.02
2019-03-11T23:45:51.097Z,102288.64
2019-03-11T23:48:24.348Z,102289.93
2019-03-11T23:50:57.584Z,102292.95
2019-03-11T23:53:30.824Z,102289.02
2019-03-11T23:56:04.064Z,102280.77
2019-03-11T23:58:37.305Z,102284.22
